Airfield :
LOGIN :

Register | Disclaimer

   EN    FR    IT 

 










Legend :    VFR   Marginal VFR   IFR   Intensive IFR   Very Intensive IFR
Visi :
Ceiling :
>= 8 km
>= 3000ft
5 to 8 km
1000 to 3000 ft
1500m to 5 km
500 to 1000 ft
800 to 1500m
200 to 500 ft
< 800m
< 200 ft
Symbols :   Thunderstorms  Fog  Heavy snow  Heavy precipitations  Wind > 20 kt
SIGMETs :     Misc.  Thunderstorms  Icing  Turbulence  Mountain Waves  Volcanic Ashes






- Airport Elevation : 83 ft
- IATA code : LHR


EGLL - London Heathrow

CURRENT METAR :
  • 041220Z AUTO 28012KT 9999 SCT043 21/09 Q1021

EXPIRED METARs :
  • 041150Z AUTO 29011KT 9999 SCT042 21/09 Q1021
  • 041120Z AUTO 29011KT 9999 SCT042 21/08 Q1021
  • 041050Z AUTO 27011KT 240V310 9999 BKN041 20/08 Q1021
  • 041020Z AUTO 27010KT 230V300 9999 BKN039 20/09 Q1021
  • 040950Z AUTO 27010KT 230V290 9999 SCT038 19/09 Q1021 NOSIG

TAF TAF EGLL
Valid from the 04 at 12:00 until the 05 at 18:00 UTC


041054Z 0412/0518 28010KT 9999 SCT045



MET'MAP, your aeronautical weather chart ! - Copyright ORBIFLY December 2007 - Disclaimer

ORBIFLY MET'MAP TEAM :

Programming & Development : Alexandra Zaïnal
Original concept : Baudouin d'Aumeries
Technical & hardware support : Manuel Goepfert
Assistance : Marc-Olivier Méhu




SOURCES & CREDITS :

   NOAA